Time;durP1;ratioP1;P1;durP2;ratioP2;P2;SDS_P1;SDS_P2;PMS_P1;PMS_P2;Temp;Humidity;BMP_temperature;BMP_pressure;BME280_temperature;BME280_humidity;BME280_pressure;Samples;Min_cycle;Max_cycle;Signal;HPM_P1;HPM_P2
2021/11/28 00:02:21;;;;;;;0.40;0.30;;;4.20;99.90;;;;;;4972329;28;20400;-68
2021/11/28 00:04:49;;;;;;;0.40;0.20;;;4.10;99.90;;;;;;4971636;28;20490;-68
2021/11/28 00:10:11;;;;;;;0.40;0.20;;;4.20;99.90;;;;;;4971266;28;20499;-68
2021/11/28 00:15:07;;;;;;;0.40;0.20;;;4.10;99.90;;;;;;4971289;28;20385;-68
2021/11/28 00:17:32;;;;;;;0.40;0.20;;;4.10;99.90;;;;;;4972179;28;20403;-68
2021/11/28 00:19:58;;;;;;;0.40;0.20;;;4.10;99.90;;;;;;4971195;28;20396;-68
2021/11/28 00:22:24;;;;;;;0.40;0.20;;;4.10;99.90;;;;;;4971922;28;20491;-68
2021/11/28 00:24:50;;;;;;;0.40;0.20;;;4.10;99.90;;;;;;4972034;28;20719;-68
2021/11/28 00:27:16;;;;;;;0.40;0.20;;;4.10;99.90;;;;;;4971188;28;20893;-68
2021/11/28 00:29:42;;;;;;;0.40;0.20;;;4.00;99.90;;;;;;4971644;28;20499;-68
2021/11/28 00:32:09;;;;;;;0.40;0.20;;;4.10;99.90;;;;;;4971415;28;20854;-69
2021/11/28 00:34:34;;;;;;;0.40;0.20;;;4.00;99.90;;;;;;4954659;28;20393;-68
2021/11/28 00:37:00;;;;;;;0.40;0.20;;;3.90;99.90;;;;;;4971968;28;20385;-68
2021/11/28 00:39:26;;;;;;;0.40;0.20;;;4.00;99.90;;;;;;4971599;28;20425;-68
2021/11/28 00:41:52;;;;;;;0.40;0.20;;;3.90;99.90;;;;;;4971986;28;20875;-68
2021/11/28 00:44:17;;;;;;;0.40;0.20;;;4.00;99.90;;;;;;4971275;28;20392;-69
2021/11/28 00:46:43;;;;;;;0.70;0.60;;;4.00;99.90;;;;;;4971981;28;20866;-68
2021/11/28 00:49:16;;;;;;;0.40;0.20;;;4.10;99.90;;;;;;4959195;28;20431;-69
2021/11/28 00:51:56;;;;;;;0.40;0.20;;;3.90;99.90;;;;;;4974364;28;20435;-69
2021/11/28 00:54:23;;;;;;;0.40;0.20;;;4.00;99.90;;;;;;4975125;28;20388;-69
2021/11/28 00:56:49;;;;;;;0.40;0.20;;;4.00;99.90;;;;;;4975224;28;20467;-68
2021/11/28 00:59:15;;;;;;;0.40;0.20;;;3.90;99.90;;;;;;4991366;28;20492;-68
2021/11/28 01:01:41;;;;;;;0.40;0.20;;;3.90;99.90;;;;;;4993939;28;20891;-68
2021/11/28 01:04:06;;;;;;;0.40;0.20;;;3.90;99.90;;;;;;4993927;28;20409;-68
2021/11/28 01:06:32;;;;;;;0.40;0.20;;;3.80;99.90;;;;;;4994357;28;20820;-69
2021/11/28 01:08:59;;;;;;;0.40;0.20;;;3.80;99.90;;;;;;4994822;28;20450;-68
2021/11/28 01:11:25;;;;;;;0.40;0.20;;;3.90;99.90;;;;;;4994826;28;20386;-68
2021/11/28 01:13:52;;;;;;;0.40;0.20;;;3.90;99.90;;;;;;4994267;28;20414;-68
2021/11/28 01:16:20;;;;;;;0.40;0.20;;;3.90;99.90;;;;;;4994484;28;20819;-68
2021/11/28 01:18:47;;;;;;;0.40;0.20;;;4.00;99.90;;;;;;4994242;28;20390;-69
2021/11/28 01:21:13;;;;;;;0.40;0.20;;;4.10;99.90;;;;;;4994609;28;20800;-68
2021/11/28 01:23:39;;;;;;;0.40;0.20;;;4.10;99.90;;;;;;4994075;28;20386;-68
2021/11/28 01:26:05;;;;;;;0.40;0.20;;;4.10;99.90;;;;;;4994610;28;20802;-68
2021/11/28 01:28:31;;;;;;;0.40;0.20;;;4.10;99.90;;;;;;4994644;28;20788;-68
2021/11/28 01:30:57;;;;;;;0.50;0.40;;;4.10;99.90;;;;;;4993818;28;20766;-69
2021/11/28 01:33:23;;;;;;;0.40;0.20;;;4.20;99.90;;;;;;4994582;28;20473;-69
2021/11/28 01:35:49;;;;;;;0.40;0.20;;;4.20;99.90;;;;;;4994119;28;20839;-68
2021/11/28 01:38:18;;;;;;;0.40;0.20;;;4.10;99.90;;;;;;4994447;28;20429;-68
2021/11/28 01:40:45;;;;;;;0.40;0.20;;;4.20;99.90;;;;;;4994353;28;20390;-68
2021/11/28 01:43:13;;;;;;;0.40;0.20;;;4.20;99.90;;;;;;4993762;28;20390;-68
2021/11/28 01:45:39;;;;;;;0.40;0.20;;;4.20;99.90;;;;;;4993950;28;20397;-68
2021/11/28 01:48:08;;;;;;;0.40;0.20;;;4.30;99.90;;;;;;4993327;28;20879;-69
2021/11/28 01:50:37;;;;;;;0.40;0.20;;;4.30;99.90;;;;;;4993947;28;20437;-68
2021/11/28 01:53:06;;;;;;;0.40;0.20;;;4.20;99.90;;;;;;4993260;28;20859;-68
2021/11/28 01:55:33;;;;;;;0.40;0.20;;;4.20;99.90;;;;;;4994093;28;20746;-68
2021/11/28 01:58:01;;;;;;;0.40;0.20;;;4.20;99.90;;;;;;4988151;28;20399;-68
2021/11/28 02:00:32;;;;;;;0.40;0.20;;;4.30;99.90;;;;;;4973716;28;20407;-68
2021/11/28 02:02:59;;;;;;;0.40;0.20;;;4.30;99.90;;;;;;4974723;28;20435;-69
2021/11/28 02:05:27;;;;;;;0.40;0.20;;;4.20;99.90;;;;;;4973859;28;20745;-69
2021/11/28 02:07:53;;;;;;;0.40;0.20;;;4.10;99.90;;;;;;4974406;28;20388;-68
2021/11/28 02:10:19;;;;;;;0.40;0.20;;;4.20;99.90;;;;;;4956240;28;20431;-68
2021/11/28 02:12:46;;;;;;;0.40;0.20;;;4.20;99.90;;;;;;4974629;28;20929;-68
2021/11/28 02:15:13;;;;;;;0.40;0.20;;;4.00;99.90;;;;;;4974412;28;20376;-68
2021/11/28 02:17:39;;;;;;;0.40;0.20;;;4.10;99.90;;;;;;4973681;28;20396;-68
2021/11/28 02:20:07;;;;;;;0.40;0.20;;;4.20;99.90;;;;;;4974378;28;20414;-68
2021/11/28 02:22:33;;;;;;;0.40;0.20;;;4.10;99.90;;;;;;4973504;28;20915;-69
2021/11/28 02:25:03;;;;;;;0.40;0.20;;;4.10;99.90;;;;;;4973975;28;20397;-68
2021/11/28 02:27:29;;;;;;;0.40;0.20;;;4.10;99.90;;;;;;4973255;28;20405;-69
2021/11/28 02:29:55;;;;;;;0.40;0.20;;;4.10;99.90;;;;;;4973861;28;20532;-68
2021/11/28 02:32:20;;;;;;;0.40;0.20;;;4.00;99.90;;;;;;4974016;28;20842;-67
2021/11/28 02:34:46;;;;;;;0.40;0.20;;;4.00;99.90;;;;;;4973481;28;20447;-68
2021/11/28 02:37:11;;;;;;;0.40;0.20;;;3.90;99.90;;;;;;4973809;28;20820;-68
2021/11/28 02:39:37;;;;;;;0.40;0.20;;;3.90;99.90;;;;;;4973336;28;20888;-69
2021/11/28 02:42:04;;;;;;;0.40;0.20;;;3.60;99.90;;;;;;4973790;28;20515;-69
2021/11/28 02:44:31;;;;;;;0.40;0.20;;;3.60;99.90;;;;;;4973730;28;20388;-68
2021/11/28 02:46:57;;;;;;;0.40;0.20;;;3.60;99.90;;;;;;4972899;28;20512;-69
2021/11/28 02:49:23;;;;;;;0.40;0.20;;;3.50;99.90;;;;;;4979965;28;20474;-68
2021/11/28 02:51:49;;;;;;;0.40;0.20;;;3.40;99.90;;;;;;4992572;28;20852;-69
2021/11/28 02:54:15;;;;;;;0.40;0.20;;;3.30;99.90;;;;;;4992725;28;20840;-69
2021/11/28 02:56:45;;;;;;;0.40;0.20;;;3.40;99.90;;;;;;4992669;28;20387;-68
2021/11/28 02:59:11;;;;;;;0.40;0.20;;;3.30;99.90;;;;;;4992584;28;20394;-69
2021/11/28 03:01:37;;;;;;;0.40;0.20;;;3.20;99.90;;;;;;4992787;28;20379;-69
2021/11/28 03:04:03;;;;;;;0.40;0.20;;;3.10;99.90;;;;;;4992022;28;20383;-68
2021/11/28 03:06:28;;;;;;;0.40;0.20;;;3.20;99.90;;;;;;4992874;28;20387;-68
2021/11/28 03:08:54;;;;;;;0.40;0.20;;;3.10;99.90;;;;;;4992735;28;20398;-68
2021/11/28 03:11:21;;;;;;;0.40;0.20;;;3.20;99.90;;;;;;4991671;28;20436;-67
2021/11/28 03:13:49;;;;;;;0.40;0.20;;;3.30;99.90;;;;;;4992503;28;20391;-68
2021/11/28 03:16:19;;;;;;;0.40;0.20;;;3.50;99.90;;;;;;4992042;28;20783;-68
2021/11/28 03:18:45;;;;;;;0.40;0.20;;;3.50;99.90;;;;;;4992201;28;20394;-68
2021/11/28 03:21:20;;;;;;;0.40;0.20;;;3.50;99.90;;;;;;4992143;28;20477;-68
2021/11/28 03:23:48;;;;;;;0.40;0.20;;;3.60;99.90;;;;;;4992630;28;20391;-69
2021/11/28 03:26:27;;;;;;;0.40;0.20;;;3.70;99.90;;;;;;4991839;28;20391;-69
2021/11/28 03:29:08;;;;;;;0.40;0.20;;;3.80;99.90;;;;;;4992407;28;20759;-68
2021/11/28 03:31:40;;;;;;;0.40;0.20;;;3.80;99.90;;;;;;4991672;28;20853;-69
2021/11/28 03:34:07;;;;;;;0.40;0.20;;;3.80;99.90;;;;;;4992495;28;20383;-68
2021/11/28 03:36:36;;;;;;;0.40;0.20;;;3.80;99.90;;;;;;4991831;28;20398;-69
2021/11/28 03:39:04;;;;;;;0.40;0.30;;;3.80;99.90;;;;;;4992174;28;20390;-68
2021/11/28 03:41:31;;;;;;;0.40;0.20;;;3.80;99.90;;;;;;4974095;28;20974;-68
2021/11/28 03:43:59;;;;;;;0.40;0.20;;;3.80;99.90;;;;;;4992414;28;20383;-68
2021/11/28 03:46:27;;;;;;;0.40;0.20;;;3.70;99.90;;;;;;4974238;28;20743;-69
2021/11/28 03:48:53;;;;;;;0.40;0.20;;;3.80;99.90;;;;;;4991454;28;20393;-69
2021/11/28 03:51:19;;;;;;;0.40;0.30;;;3.70;99.90;;;;;;4974825;28;20768;-68
2021/11/28 03:53:45;;;;;;;0.50;0.40;;;3.70;99.90;;;;;;4991244;28;20391;-68
2021/11/28 03:56:11;;;;;;;0.40;0.30;;;3.60;99.90;;;;;;4991947;28;20382;-68
2021/11/28 03:58:38;;;;;;;0.40;0.20;;;3.60;99.90;;;;;;4980187;28;20490;-69
2021/11/28 04:01:08;;;;;;;0.40;0.30;;;3.70;99.90;;;;;;4972227;28;20407;-68
2021/11/28 04:03:35;;;;;;;0.40;0.20;;;3.60;99.90;;;;;;4972414;28;20424;-69
2021/11/28 04:06:01;;;;;;;0.40;0.20;;;3.60;99.90;;;;;;4954447;28;20392;-69
2021/11/28 04:08:26;;;;;;;0.40;0.20;;;3.60;99.90;;;;;;4972309;28;20448;-69
2021/11/28 04:10:52;;;;;;;0.40;0.20;;;3.70;99.90;;;;;;4971514;28;20416;-70
2021/11/28 04:13:18;;;;;;;0.40;0.20;;;3.50;99.90;;;;;;4955284;28;20512;-70
2021/11/28 04:15:44;;;;;;;0.40;0.20;;;3.60;99.90;;;;;;4972667;28;20443;-70
2021/11/28 04:18:10;;;;;;;0.40;0.20;;;3.70;99.90;;;;;;4972315;28;20467;-67
2021/11/28 04:20:37;;;;;;;0.40;0.20;;;3.60;99.90;;;;;;4972481;28;20444;-69
2021/11/28 04:23:03;;;;;;;0.40;0.20;;;3.60;99.90;;;;;;4970749;28;20388;-69
2021/11/28 04:25:29;;;;;;;0.40;0.20;;;3.40;99.90;;;;;;4972398;28;20388;-68
2021/11/28 04:27:55;;;;;;;0.40;0.20;;;3.50;99.90;;;;;;4971501;28;20403;-69
2021/11/28 04:30:21;;;;;;;0.40;0.20;;;3.60;99.90;;;;;;4971847;28;20460;-68
2021/11/28 04:32:47;;;;;;;0.40;0.20;;;3.60;99.90;;;;;;4972004;28;20438;-69
2021/11/28 04:35:12;;;;;;;0.40;0.20;;;3.70;99.90;;;;;;4971477;28;20612;-69
2021/11/28 04:37:39;;;;;;;0.40;0.20;;;3.70;99.90;;;;;;4972012;28;20474;-69
2021/11/28 04:40:08;;;;;;;0.40;0.20;;;3.70;99.90;;;;;;4977405;28;20779;-70
2021/11/28 04:42:33;;;;;;;0.40;0.20;;;3.80;99.90;;;;;;4979707;28;20393;-70
2021/11/28 04:45:00;;;;;;;0.40;0.20;;;3.70;99.90;;;;;;4982912;28;20384;-70
2021/11/28 04:47:25;;;;;;;0.40;0.20;;;3.70;99.90;;;;;;4980634;28;20383;-69
2021/11/28 04:49:51;;;;;;;0.40;0.20;;;3.70;99.90;;;;;;4986654;28;20568;-69
2021/11/28 04:52:18;;;;;;;0.40;0.20;;;3.70;99.90;;;;;;4972603;28;20393;-70
2021/11/28 04:54:44;;;;;;;0.40;0.20;;;3.60;99.90;;;;;;4990916;28;20401;-70
2021/11/28 04:57:10;;;;;;;0.40;0.20;;;3.60;99.90;;;;;;4990867;28;20847;-69
2021/11/28 04:59:35;;;;;;;0.40;0.20;;;3.60;99.90;;;;;;4956633;28;20445;-70
2021/11/28 05:02:01;;;;;;;0.40;0.20;;;3.50;99.90;;;;;;4990839;28;20462;-69
2021/11/28 05:04:27;;;;;;;0.40;0.20;;;3.50;99.90;;;;;;4990420;28;20375;-69
2021/11/28 05:06:53;;;;;;;0.40;0.20;;;3.60;99.90;;;;;;4991339;28;20394;-69
2021/11/28 05:09:19;;;;;;;0.40;0.30;;;3.80;99.90;;;;;;4990815;28;20419;-69
2021/11/28 05:11:45;;;;;;;0.40;0.20;;;3.80;99.90;;;;;;4990834;28;20387;-69
2021/11/28 05:14:10;;;;;;;0.40;0.20;;;3.80;99.90;;;;;;4991550;28;20395;-69
2021/11/28 05:16:38;;;;;;;0.40;0.40;;;3.90;99.90;;;;;;4991186;28;20398;-69
2021/11/28 05:19:04;;;;;;;0.40;0.20;;;3.80;99.90;;;;;;4991488;28;20383;-69
2021/11/28 05:21:30;;;;;;;0.40;0.20;;;3.80;99.90;;;;;;4991314;28;20387;-69
2021/11/28 05:23:56;;;;;;;0.40;0.20;;;3.80;99.90;;;;;;4990411;28;20389;-69
2021/11/28 05:26:22;;;;;;;0.40;0.20;;;3.70;99.90;;;;;;4991642;28;20399;-69
2021/11/28 05:28:48;;;;;;;0.40;0.20;;;3.80;99.90;;;;;;4991250;28;20473;-69
2021/11/28 05:31:18;;;;;;;0.40;0.20;;;3.80;99.90;;;;;;4991295;28;20477;-69
2021/11/28 05:33:48;;;;;;;0.40;0.20;;;3.80;99.90;;;;;;4992704;28;20406;-69
2021/11/28 05:36:15;;;;;;;0.40;0.20;;;3.60;99.90;;;;;;4994338;28;20440;-69
2021/11/28 05:38:42;;;;;;;0.40;0.20;;;3.90;99.90;;;;;;4994432;28;20864;-70
2021/11/28 05:41:08;;;;;;;0.40;0.20;;;3.90;99.90;;;;;;4994007;28;20391;-70
2021/11/28 05:43:38;;;;;;;0.40;0.20;;;3.70;99.90;;;;;;4994679;28;20597;-70
2021/11/28 05:46:04;;;;;;;0.40;0.20;;;3.70;99.90;;;;;;4994726;28;20895;-70
2021/11/28 05:48:30;;;;;;;0.40;0.20;;;3.70;99.90;;;;;;4994003;28;20395;-70
2021/11/28 05:50:56;;;;;;;0.40;0.20;;;3.80;99.90;;;;;;4994573;28;20783;-69
2021/11/28 05:53:22;;;;;;;0.40;0.20;;;3.90;99.90;;;;;;4993674;28;20383;-69
2021/11/28 05:55:49;;;;;;;0.40;0.20;;;3.90;99.90;;;;;;4994622;28;20391;-69
2021/11/28 05:58:15;;;;;;;0.40;0.20;;;3.90;99.90;;;;;;4986125;28;20395;-69
2021/11/28 06:00:41;;;;;;;0.40;0.20;;;3.90;99.90;;;;;;4974462;28;20392;-69
2021/11/28 06:03:07;;;;;;;0.40;0.20;;;3.90;99.90;;;;;;4975039;28;20484;-69
2021/11/28 06:05:32;;;;;;;0.40;0.20;;;3.90;99.90;;;;;;4973914;28;20448;-69
2021/11/28 06:07:58;;;;;;;0.40;0.20;;;3.80;99.90;;;;;;4974871;28;20416;-69
2021/11/28 06:10:24;;;;;;;0.40;0.20;;;3.80;99.90;;;;;;4974609;28;20498;-69
2021/11/28 06:12:50;;;;;;;0.40;0.20;;;3.80;99.90;;;;;;4974560;28;20516;-69
2021/11/28 06:15:15;;;;;;;0.40;0.20;;;3.80;99.90;;;;;;4957385;28;20393;-69
2021/11/28 06:17:41;;;;;;;0.40;0.20;;;3.80;99.90;;;;;;4973881;28;20392;-69
2021/11/28 06:20:08;;;;;;;0.40;0.20;;;3.80;99.90;;;;;;4974682;28;20415;-69
2021/11/28 06:22:35;;;;;;;0.40;0.20;;;3.70;99.90;;;;;;4974434;28;20735;-69
2021/11/28 06:25:00;;;;;;;0.40;0.20;;;3.80;99.90;;;;;;4973538;28;20385;-68
2021/11/28 06:27:26;;;;;;;0.40;0.20;;;3.80;99.90;;;;;;4974187;28;20983;-69
2021/11/28 06:29:52;;;;;;;0.40;0.20;;;3.80;99.90;;;;;;4974390;28;20412;-69
2021/11/28 06:32:18;;;;;;;0.40;0.20;;;3.90;99.90;;;;;;4974175;28;20404;-69
2021/11/28 06:34:44;;;;;;;0.40;0.30;;;3.90;99.90;;;;;;4974227;28;20399;-69
2021/11/28 06:37:10;;;;;;;0.40;0.20;;;3.80;99.90;;;;;;4973647;28;20384;-69
2021/11/28 06:39:36;;;;;;;0.50;0.50;;;3.70;99.90;;;;;;4973935;28;20394;-69
2021/11/28 06:42:02;;;;;;;0.40;0.20;;;3.70;99.90;;;;;;4974217;28;20725;-69
2021/11/28 06:44:28;;;;;;;0.40;0.20;;;3.70;99.90;;;;;;4973048;28;20482;-69
2021/11/28 06:46:54;;;;;;;0.40;0.20;;;3.60;99.90;;;;;;4973875;28;20388;-68
2021/11/28 06:49:20;;;;;;;0.40;0.20;;;3.70;99.90;;;;;;4979032;28;20438;-69
2021/11/28 06:51:46;;;;;;;0.40;0.20;;;3.60;99.90;;;;;;4976077;28;20398;-69
2021/11/28 06:54:12;;;;;;;0.40;0.20;;;3.70;99.90;;;;;;4993484;28;20469;-69
2021/11/28 06:56:37;;;;;;;0.40;0.20;;;3.50;99.90;;;;;;4992798;28;20390;-70
2021/11/28 06:59:03;;;;;;;0.40;0.20;;;3.60;99.90;;;;;;5007696;28;20385;-70
2021/11/28 07:01:29;;;;;;;0.40;0.30;;;3.60;99.90;;;;;;5012064;28;20385;-69
2021/11/28 07:03:54;;;;;;;0.40;0.20;;;3.60;99.90;;;;;;5012487;28;20380;-69
2021/11/28 07:06:20;;;;;;;0.40;0.20;;;3.60;99.90;;;;;;5013123;28;20385;-69
2021/11/28 07:08:46;;;;;;;0.40;0.20;;;3.60;99.90;;;;;;5012109;28;20726;-69
2021/11/28 07:11:12;;;;;;;0.40;0.20;;;3.70;99.90;;;;;;4995018;28;20400;-69
2021/11/28 07:13:37;;;;;;;0.40;0.20;;;3.70;99.90;;;;;;4994512;28;20440;-71
2021/11/28 07:16:03;;;;;;;0.40;0.20;;;3.70;99.90;;;;;;5012307;28;20377;-70
2021/11/28 07:18:29;;;;;;;0.40;0.20;;;3.60;99.90;;;;;;5012363;28;20511;-69
2021/11/28 07:20:55;;;;;;;0.40;0.20;;;3.70;99.90;;;;;;5012052;28;20485;-70
2021/11/28 07:23:21;;;;;;;0.40;0.20;;;3.80;99.90;;;;;;5012569;28;20845;-69
2021/11/28 07:25:48;;;;;;;0.40;0.20;;;3.80;99.90;;;;;;5011464;28;20951;-70
2021/11/28 07:28:14;;;;;;;0.40;0.20;;;3.80;99.90;;;;;;4994526;28;20452;-70
2021/11/28 07:30:42;;;;;;;0.40;0.20;;;3.80;99.90;;;;;;5011972;28;20428;-69
2021/11/28 07:33:08;;;;;;;0.40;0.20;;;3.80;99.90;;;;;;4994039;28;20495;-69
2021/11/28 07:35:33;;;;;;;0.40;0.20;;;3.90;99.90;;;;;;5012010;28;20484;-70
2021/11/28 07:37:59;;;;;;;0.40;0.20;;;3.90;99.90;;;;;;4994257;28;20834;-69
2021/11/28 07:40:25;;;;;;;0.40;0.20;;;3.90;99.90;;;;;;4978200;28;20485;-70
2021/11/28 07:42:51;;;;;;;0.40;0.20;;;3.80;99.90;;;;;;4994654;28;20428;-70
2021/11/28 07:45:16;;;;;;;0.40;0.20;;;3.80;99.90;;;;;;5011430;28;20732;-70
2021/11/28 07:47:42;;;;;;;0.40;0.20;;;3.80;99.90;;;;;;5012142;28;20527;-69
2021/11/28 07:50:10;;;;;;;0.40;0.20;;;3.80;99.90;;;;;;4980755;28;20506;-70
2021/11/28 07:52:36;;;;;;;0.60;0.50;;;3.80;99.90;;;;;;4975284;28;20414;-70
2021/11/28 07:55:04;;;;;;;0.40;0.20;;;3.80;99.90;;;;;;4991654;28;20425;-69
2021/11/28 07:57:29;;;;;;;0.40;0.20;;;3.80;99.90;;;;;;4989680;28;20500;-69
2021/11/28 07:59:55;;;;;;;0.40;0.20;;;3.80;99.90;;;;;;4972770;28;20393;-69
2021/11/28 08:02:21;;;;;;;0.40;0.20;;;3.90;99.90;;;;;;4972179;28;20388;-69
2021/11/28 08:04:48;;;;;;;0.40;0.20;;;3.80;99.90;;;;;;4972708;28;20388;-69
2021/11/28 08:07:14;;;;;;;0.40;0.30;;;3.90;99.90;;;;;;4972122;28;20387;-68
2021/11/28 08:09:40;;;;;;;0.40;0.20;;;3.70;99.90;;;;;;4955395;28;20435;-69
2021/11/28 08:12:06;;;;;;;0.40;0.20;;;3.70;99.90;;;;;;4982041;28;20402;-68
2021/11/28 08:14:32;;;;;;;0.40;0.30;;;3.70;99.90;;;;;;4990970;28;20379;-69
2021/11/28 08:16:58;;;;;;;0.40;0.20;;;3.70;99.90;;;;;;4991508;28;20796;-69
2021/11/28 08:19:23;;;;;;;0.40;0.20;;;3.70;99.90;;;;;;4990707;28;20394;-69
2021/11/28 08:21:49;;;;;;;0.40;0.20;;;3.70;99.90;;;;;;4991678;28;20418;-69
2021/11/28 08:24:15;;;;;;;0.40;0.20;;;3.70;99.90;;;;;;4990937;28;20394;-70
2021/11/28 08:26:41;;;;;;;0.40;0.20;;;3.80;99.90;;;;;;4990314;28;20421;-69
2021/11/28 08:29:08;;;;;;;0.40;0.20;;;3.80;99.90;;;;;;4991544;28;20391;-69
2021/11/28 08:31:35;;;;;;;0.40;0.20;;;3.90;99.90;;;;;;4990691;28;20394;-69
2021/11/28 08:34:01;;;;;;;0.40;0.20;;;4.00;99.90;;;;;;4974159;28;20481;-69
2021/11/28 08:36:27;;;;;;;0.40;0.20;;;4.00;99.90;;;;;;4974032;28;20382;-70
2021/11/28 08:38:55;;;;;;;0.40;0.20;;;4.10;99.90;;;;;;4973455;28;20795;-70
2021/11/28 08:41:22;;;;;;;0.40;0.20;;;4.00;99.90;;;;;;4991276;28;20394;-69
2021/11/28 08:43:51;;;;;;;0.40;0.20;;;4.10;99.90;;;;;;4990641;28;20383;-69
2021/11/28 08:46:20;;;;;;;0.50;0.40;;;4.20;99.90;;;;;;4991280;28;20386;-69
2021/11/28 08:48:47;;;;;;;0.40;0.20;;;4.10;99.90;;;;;;4990421;28;20390;-69
2021/11/28 08:51:14;;;;;;;0.40;0.20;;;4.20;99.90;;;;;;4973870;28;20445;-70
2021/11/28 08:53:40;;;;;;;0.40;0.20;;;4.00;99.90;;;;;;4990797;28;20387;-69
2021/11/28 08:56:06;;;;;;;0.40;0.20;;;4.20;99.90;;;;;;4973099;28;20886;-68
2021/11/28 08:58:33;;;;;;;0.40;0.20;;;4.50;99.90;;;;;;4980568;28;20498;-69
2021/11/28 09:00:59;;;;;;;0.40;0.20;;;4.10;99.90;;;;;;4971021;28;20392;-69
2021/11/28 09:03:25;;;;;;;0.40;0.20;;;4.10;99.90;;;;;;4972189;28;20738;-68
2021/11/28 09:05:52;;;;;;;0.40;0.20;;;4.10;99.90;;;;;;4969818;28;20422;-69
2021/11/28 09:08:18;;;;;;;0.40;0.20;;;4.10;99.90;;;;;;4971961;28;20830;-68
2021/11/28 09:10:45;;;;;;;0.40;0.20;;;4.10;99.90;;;;;;4975117;28;20411;-69
2021/11/28 09:13:12;;;;;;;0.40;0.20;;;4.40;99.90;;;;;;4973912;28;21025;-70
2021/11/28 09:15:38;;;;;;;0.40;0.20;;;4.60;99.90;;;;;;4975732;28;20384;-70
2021/11/28 09:18:13;;;;;;;0.40;0.20;;;4.60;99.90;;;;;;4973941;28;20397;-69
2021/11/28 09:20:43;;;;;;;0.40;0.20;;;4.70;99.90;;;;;;4975447;28;20484;-69
2021/11/28 09:25:35;;;;;;;0.40;0.20;;;4.60;99.90;;;;;;4975186;28;20392;-69
2021/11/28 09:28:02;;;;;;;0.40;0.20;;;4.70;99.90;;;;;;4973982;28;20483;-70
2021/11/28 09:30:29;;;;;;;0.40;0.20;;;4.80;99.90;;;;;;4974618;28;20411;-69
2021/11/28 09:32:57;;;;;;;0.40;0.40;;;4.60;99.90;;;;;;4974935;28;20472;-69
2021/11/28 09:35:24;;;;;;;0.40;0.20;;;4.70;99.90;;;;;;4973508;28;20440;-69
2021/11/28 09:37:51;;;;;;;0.40;0.28;;;4.90;99.90;;;;;;4974801;28;20396;-69
2021/11/28 09:40:17;;;;;;;0.40;0.20;;;4.80;99.90;;;;;;4987417;28;20387;-69
2021/11/28 09:42:51;;;;;;;0.40;0.20;;;4.70;99.90;;;;;;4994173;28;20394;-69
2021/11/28 09:45:16;;;;;;;0.40;0.20;;;4.70;99.90;;;;;;4993452;28;20425;-70
2021/11/28 09:47:44;;;;;;;0.40;0.20;;;5.00;99.90;;;;;;4993967;28;20395;-68
2021/11/28 09:50:11;;;;;;;0.40;0.20;;;4.90;99.90;;;;;;4994342;28;20426;-69
2021/11/28 09:52:37;;;;;;;0.40;0.20;;;4.90;99.90;;;;;;4975761;28;20406;-69
2021/11/28 09:55:06;;;;;;;0.40;0.20;;;4.90;99.90;;;;;;4993838;28;20427;-69
2021/11/28 09:57:33;;;;;;;0.80;0.50;;;4.70;99.90;;;;;;4973301;28;20390;-69
2021/11/28 09:59:59;;;;;;;0.40;0.20;;;4.50;99.90;;;;;;4974309;28;20757;-70
2021/11/28 10:02:28;;;;;;;0.57;0.57;;;4.50;99.90;;;;;;4973960;28;20510;-69
2021/11/28 10:04:56;;;;;;;0.40;0.20;;;4.50;99.90;;;;;;4974532;28;20416;-69
2021/11/28 10:07:22;;;;;;;0.40;0.20;;;4.50;99.90;;;;;;4974272;28;20733;-70
2021/11/28 10:09:48;;;;;;;0.40;0.20;;;4.60;99.90;;;;;;4973752;28;20431;-68
2021/11/28 10:12:23;;;;;;;0.85;0.85;;;4.80;99.90;;;;;;4974229;28;20385;-69
2021/11/28 10:14:55;;;;;;;0.40;0.20;;;4.90;99.90;;;;;;4973519;28;20384;-68
2021/11/28 10:17:27;;;;;;;0.40;0.20;;;5.00;98.60;;;;;;4974170;28;20715;-69
2021/11/28 10:19:53;;;;;;;0.40;0.20;;;5.00;98.90;;;;;;4972305;28;20411;-68
2021/11/28 10:22:19;;;;;;;0.40;0.20;;;5.40;98.00;;;;;;4973754;28;20479;-68
2021/11/28 10:24:56;;;;;;;0.40;0.20;;;5.50;97.60;;;;;;4956075;28;20866;-70
2021/11/28 10:27:45;;;;;;;0.40;0.20;;;5.80;97.20;;;;;;4974202;28;20899;-70
2021/11/28 10:30:15;;;;;;;0.40;0.20;;;5.90;96.70;;;;;;4973925;28;20958;-69
2021/11/28 10:32:43;;;;;;;0.40;0.20;;;6.10;96.70;;;;;;4972975;28;20376;-69
2021/11/28 10:35:11;;;;;;;0.40;0.20;;;6.00;95.40;;;;;;4973798;28;20395;-70
2021/11/28 10:37:42;;;;;;;0.40;0.20;;;6.00;95.20;;;;;;4973726;28;20404;-69
2021/11/28 10:40:08;;;;;;;0.40;0.20;;;6.00;96.00;;;;;;4973738;28;20745;-70
2021/11/28 10:42:36;;;;;;;0.40;0.20;;;5.90;96.10;;;;;;4973188;28;20777;-70
2021/11/28 10:45:11;;;;;;;0.40;0.20;;;5.80;96.30;;;;;;4973145;28;20881;-70
2021/11/28 10:47:51;;;;;;;0.40;0.20;;;5.60;96.40;;;;;;4973405;28;20467;-70
2021/11/28 10:50:33;;;;;;;0.40;0.20;;;5.40;97.20;;;;;;4987365;28;20779;-70
2021/11/28 10:53:06;;;;;;;0.40;0.20;;;5.20;97.70;;;;;;4991815;28;20895;-68
2021/11/28 10:55:45;;;;;;;0.40;0.20;;;5.20;98.00;;;;;;4992796;28;20905;-70
2021/11/28 10:58:21;;;;;;;0.40;0.20;;;5.20;98.10;;;;;;4999817;28;20432;-70
2021/11/28 11:00:50;;;;;;;0.80;0.77;;;5.00;98.80;;;;;;5012590;28;20393;-69
2021/11/28 11:03:20;;;;;;;0.40;0.20;;;5.00;99.50;;;;;;5011646;28;20399;-70
2021/11/28 11:05:52;;;;;;;0.50;0.50;;;4.80;99.80;;;;;;5012333;28;20439;-69
2021/11/28 11:08:24;;;;;;;0.40;0.20;;;4.90;99.80;;;;;;5011291;28;20384;-70
2021/11/28 11:11:09;;;;;;;0.40;0.20;;;5.00;99.80;;;;;;5012250;28;20762;-70
2021/11/28 11:14:00;;;;;;;0.40;0.20;;;4.90;99.90;;;;;;5012170;28;20826;-70
2021/11/28 11:16:33;;;;;;;0.40;0.20;;;5.00;99.90;;;;;;5011921;28;20393;-70
2021/11/28 11:19:28;;;;;;;0.40;0.20;;;5.10;99.90;;;;;;4994666;28;20830;-69
2021/11/28 11:22:21;;;;;;;0.40;0.20;;;4.90;99.90;;;;;;5011876;28;20930;-69
2021/11/28 11:25:08;;;;;;;0.40;0.20;;;4.70;99.90;;;;;;5012209;28;20385;-68
2021/11/28 11:27:39;;;;;;;0.40;0.20;;;4.80;99.90;;;;;;5011606;28;20385;-68
2021/11/28 11:30:10;;;;;;;0.40;0.20;;;4.80;99.90;;;;;;5011629;28;20417;-69
2021/11/28 11:32:40;;;;;;;0.40;0.30;;;4.70;99.90;;;;;;5011399;28;20739;-68
2021/11/28 11:35:09;;;;;;;0.40;0.20;;;4.60;99.90;;;;;;5011790;28;20484;-69
2021/11/28 11:37:36;;;;;;;0.40;0.20;;;4.50;99.90;;;;;;5011271;28;20420;-69
2021/11/28 11:40:09;;;;;;;0.40;0.20;;;4.40;99.90;;;;;;4994675;28;20384;-70
2021/11/28 11:42:37;;;;;;;0.40;0.20;;;4.40;99.90;;;;;;5010865;28;20712;-69
2021/11/28 11:45:05;;;;;;;0.40;0.20;;;4.50;99.90;;;;;;5011661;28;20395;-69
2021/11/28 11:47:31;;;;;;;0.40;0.20;;;4.30;99.90;;;;;;5010735;28;20381;-69
2021/11/28 11:49:57;;;;;;;0.40;0.40;;;4.40;99.90;;;;;;5011062;28;20421;-70
2021/11/28 11:52:23;;;;;;;0.40;0.20;;;4.50;99.90;;;;;;5010166;28;20484;-69
2021/11/28 11:55:17;;;;;;;0.40;0.20;;;4.40;99.90;;;;;;5011422;28;20766;-69
2021/11/28 11:58:10;;;;;;;0.40;0.30;;;4.40;99.90;;;;;;5006784;28;20497;-69
2021/11/28 12:00:40;;;;;;;0.40;0.20;;;4.40;99.90;;;;;;4991096;28;20387;-70
2021/11/28 12:03:21;;;;;;;0.40;0.20;;;4.50;99.90;;;;;;4991700;28;20386;-69
2021/11/28 12:05:52;;;;;;;0.40;0.20;;;4.60;99.90;;;;;;4991037;28;21119;-70
2021/11/28 12:08:19;;;;;;;0.40;0.20;;;4.60;99.90;;;;;;4991701;28;20405;-69
2021/11/28 12:11:07;;;;;;;0.40;0.20;;;4.70;99.90;;;;;;4990803;28;20433;-70
2021/11/28 12:13:32;;;;;;;0.40;0.20;;;4.80;99.90;;;;;;4990878;28;20406;-70
2021/11/28 12:16:07;;;;;;;0.40;0.20;;;4.70;99.90;;;;;;4991857;28;20856;-69
2021/11/28 12:18:42;;;;;;;0.40;0.20;;;4.60;99.90;;;;;;4991378;28;20469;-71
2021/11/28 12:21:14;;;;;;;0.40;0.20;;;4.50;99.90;;;;;;4991812;28;20409;-70
2021/11/28 12:23:46;;;;;;;0.40;0.20;;;4.40;99.90;;;;;;4973677;28;20398;-69
2021/11/28 12:26:27;;;;;;;0.40;0.20;;;4.40;99.90;;;;;;4973932;28;20452;-69
2021/11/28 12:29:13;;;;;;;0.40;0.20;;;4.60;99.90;;;;;;4990688;28;20390;-69
2021/11/28 12:31:50;;;;;;;0.40;0.20;;;4.60;99.90;;;;;;4991122;28;20457;-69
2021/11/28 12:34:24;;;;;;;0.40;0.20;;;4.60;99.90;;;;;;4974091;28;20505;-69
2021/11/28 12:36:55;;;;;;;0.45;0.43;;;4.60;99.90;;;;;;4990136;28;20404;-69
2021/11/28 12:39:24;;;;;;;0.40;0.20;;;4.60;99.90;;;;;;4974215;28;20394;-69
2021/11/28 12:42:02;;;;;;;0.40;0.20;;;4.70;99.90;;;;;;4990527;28;20397;-69
2021/11/28 12:44:35;;;;;;;0.40;0.20;;;4.40;99.90;;;;;;4976852;28;20899;-69
2021/11/28 12:47:09;;;;;;;0.40;0.20;;;4.20;99.90;;;;;;4994495;28;20389;-69
2021/11/28 12:49:48;;;;;;;0.40;0.20;;;4.10;99.90;;;;;;4995036;28;20437;-69
2021/11/28 12:52:17;;;;;;;0.40;0.20;;;4.10;99.90;;;;;;4988167;28;21203;-69
2021/11/28 12:55:04;;;;;;;0.40;0.20;;;4.10;99.90;;;;;;4979763;28;20400;-68
2021/11/28 12:57:43;;;;;;;0.40;0.20;;;4.00;99.90;;;;;;4988196;28;20432;-68
2021/11/28 13:00:24;;;;;;;0.40;0.20;;;4.00;99.90;;;;;;4987123;28;20433;-69
2021/11/28 13:02:56;;;;;;;0.40;0.20;;;4.00;99.90;;;;;;4974786;28;20402;-72
2021/11/28 13:05:32;;;;;;;0.90;0.70;;;4.10;99.90;;;;;;4990917;28;21239;-71
2021/11/28 13:08:01;;;;;;;0.40;0.20;;;4.10;99.90;;;;;;4992252;28;20401;-71
2021/11/28 13:10:39;;;;;;;0.90;0.90;;;4.10;99.90;;;;;;4991355;28;20428;-72
2021/11/28 13:13:10;;;;;;;0.40;0.20;;;3.80;99.90;;;;;;4991005;28;20906;-70